This is the latest recevied weather packets stored in our database for station/object CA3DJL-10. If no packets are shown the sender has not sent any weather packets the latest 10 day(s).
| Time | Temp. | Humidity | Pressure | Rain* | Wind** | Luminosity | Snow |
|---|---|---|---|---|---|---|---|
| 1777780413 | 20.56° C | 31% | 986 hPa | - | - | - | - |
| 1777779512 | 20.56° C | 31% | 986 hPa | - | - | - | - |
| 1777778611 | 21.11° C | 31% | 986 hPa | - | - | - | - |
| 1777777710 | 21.11° C | 31% | 986 hPa | - | - | - | - |
| 1777776809 | 21.67° C | 31% | 986 hPa | - | - | - | - |
| 1777775908 | 22.22° C | 30% | 986 hPa | - | - | - | - |
| 1777775006 | 22.22° C | 31% | 986 hPa | - | - | - | - |
| 1777774105 | 22.78° C | 30% | 986 hPa | - | - | - | - |
| 1777773204 | 23.33° C | 30% | 985 hPa | - | - | - | - |
| 1777772303 | 23.89° C | 30% | 985 hPa | - | - | - | - |
| 1777771402 | 23.89° C | 30% | 985 hPa | - | - | - | - |
| 1777768698 | 25.56° C | 29% | 985 hPa | - | - | - | - |
| 1777766896 | 182.78° C | 100% | - | - | - | - | - |
| 1777764193 | 28.89° C | 27% | 985 hPa | - | - | - | - |
| 1777760589 | 32.78° C | 25% | 984 hPa | - | - | - | - |
| 1777757885 | 35° C | 24% | 983 hPa | - | - | - | - |
| 1777753380 | 35.56° C | 25% | 983 hPa | - | - | - | - |
| 1777750676 | 35° C | 26% | 983 hPa | - | - | - | - |
| 1777747072 | 32.78° C | 29% | 983 hPa | - | - | - | - |
| 1777739862 | 27.22° C | 36% | 984 hPa | - | - | - | - |
| 1777738060 | 25.56° C | 38% | 984 hPa | - | - | - | - |
| 1777736258 | 23.89° C | 40% | 985 hPa | - | - | - | - |
| 1777735357 | 22.78° C | 41% | 985 hPa | - | - | - | - |
| 1777734456 | 182.78° C | 100% | - | - | - | - | - |
| 1777732654 | 182.78° C | 100% | - | - | - | - | - |
* Rain since midnight (hover to see other rain measurements)
** Current wind speed in m/s (hover to see current wind gust speed)